Flight Track Log - Related Links

Times and Time Zones

All times are in EDT time to prevent confusion due to time zone crossing. See the EMD26 flight status page for this flight to view local times or setup timezone preferences in your user account.

Time Position Orientation Groundspeed Altitude Reporting Facility
EDT Latitude Longitude Course Direction KTS MPH feet Rate Location/Type
Tue 05:13:48 AM 38.1500 -85.7500 254° West 148 170 1,600  Level Louisville TRACON
Tue 05:15:15 AM 38.1267 -85.8081 243° Southwest 140 161 2,900 1,297 Climbing Indianapolis Center
Tue 05:16:16 AM 38.1161 -85.8658 257° West 141 162 4,800 1,587 Climbing Indianapolis Center
Tue 05:17:16 AM 38.1025 -85.9206 252° West 160 184 6,100 1,289 Climbing Indianapolis Center
Tue 05:18:17 AM 38.0867 -85.9736 249° West 159 183 7,400 1,279 Climbing Indianapolis Center
Tue 05:19:00 AM 38.0503 -86.1486 254° West  Level FlightAware Approximate
Tue 05:19:18 AM 38.0697 -86.0253 247° West 158 182 8,700  Level Indianapolis Center
Tue 05:20:19 AM 38.0550 -86.0828 252° West 163 188 10,000 1,279 Climbing Indianapolis Center
Tue 05:21:20 AM 38.0414 -86.1333 251° West 157 181 11,300 992 Climbing Indianapolis Center
Tue 05:22:20 AM 38.0250 -86.1831 247° West 152 175 12,000 397 Climbing Indianapolis Center
Tue 05:23:21 AM 38.0089 -86.2486 253° West 184 212 12,100 49 Climbing Indianapolis Center
Tue 05:24:22 AM 37.9917 -86.3206 253° West 209 241 12,100  Level Indianapolis Center
Tue 05:25:23 AM 37.9669 -86.3950 247° West 225 259 12,100  Level Indianapolis Center
Tue 05:26:23 AM 37.9461 -86.4683 250° West 222 255 12,100  Level Indianapolis Center
Tue 05:27:24 AM 37.9272 -86.5442 252° West 223 257 12,100  Level Indianapolis Center
Tue 05:28:25 AM 37.9050 -86.6189 249° West 225 259 12,100  Level Indianapolis Center
Tue 05:29:26 AM 37.8825 -86.6928 249° West 223 257 12,100  Level Indianapolis Center
Tue 05:30:26 AM 37.8636 -86.7683 252° West 222 255 12,100  Level Indianapolis Center
Tue 05:31:27 AM 37.8408 -86.8433 249° West 226 260 12,100  Level Indianapolis Center
Tue 05:32:28 AM 37.8186 -86.9178 249° West 225 259 12,100  Level Indianapolis Center
Tue 05:33:28 AM 37.7981 -86.9919 251° West 224 258 12,100  Level Indianapolis Center
Tue 05:34:29 AM 37.7767 -87.0658 250° West 223 257 12,100  Level Indianapolis Center
Tue 05:35:30 AM 37.7544 -87.1400 249° West 224 258 12,100  Level Indianapolis Center
Tue 05:36:31 AM 37.7325 -87.2172 250° West 221 254 12,100  Level Indianapolis Center
Tue 05:37:31 AM 37.7103 -87.2925 250° West 226 260 12,100  Level Indianapolis Center
Tue 05:38:32 AM 37.6878 -87.3661 249° West 226 260 12,100  Level Indianapolis Center
Tue 05:39:32 AM 37.6664 -87.4406 250° West 225 259 12,100  Level Indianapolis Center
Tue 05:40:33 AM 37.6450 -87.5164 250° West 226 260 12,100  Level Indianapolis Center
Tue 05:41:33 AM 37.6225 -87.5903 249° West 225 259 12,100  Level Indianapolis Center
Tue 05:42:34 AM 37.5997 -87.6647 249° West 226 260 12,100  Level Indianapolis Center
Tue 05:43:34 AM 37.5794 -87.7389 251° West 224 258 12,100  Level Indianapolis Center
Tue 05:44:35 AM 37.5569 -87.8122 249° West 223 257 12,100  Level Indianapolis Center
Tue 05:45:36 AM 37.5347 -87.8872 250° West 225 259 12,100  Level Indianapolis Center
Tue 05:46:36 AM 37.5125 -87.9603 249° West 223 257 12,100  Level Indianapolis Center
Tue 05:47:37 AM 37.4903 -88.0353 250° West 226 260 12,100  Level Indianapolis Center
Tue 05:48:37 AM 37.4675 -88.1086 249° West 225 259 12,100  Level Indianapolis Center
Tue 05:49:38 AM 37.4461 -88.1825 250° West 224 258 12,100 -50 Level Indianapolis Center
Tue 05:50:38 AM 37.4236 -88.2567 249° West 224 258 12,000 -50 Descending Indianapolis Center
Tue 05:51:39 AM 37.4006 -88.3311 249° West 225 259 12,000  Level Indianapolis Center
Tue 05:52:39 AM 37.3781 -88.4047 249° West 225 259 12,000 -50 Level Indianapolis Center
Tue 05:53:40 AM 37.3608 -88.4808 254° West 225 259 11,900 -198 Descending Indianapolis Center
Tue 05:54:40 AM 37.3442 -88.5681 257° West 232 267 11,600 -347 Descending Indianapolis Center
Tue 05:55:41 AM 37.3283 -88.6483 256° West 236 272 11,200 -386 Descending Indianapolis Center
Tue 05:57:00 AM 37.3092 -88.7611 258° West 235 270 10,700 -388 Descending Memphis Center
Tue 05:58:00 AM 37.2933 -88.8422 256° West 241 277 10,300 -400 Descending Memphis Center
Tue 05:59:00 AM 37.2778 -88.9283 257° West 241 277 9,900 -400 Descending Memphis Center
Tue 06:00:00 AM 37.2619 -89.0094 256° West 241 277 9,500 -350 Descending Memphis Center
Tue 06:01:00 AM 37.2442 -89.0881 254° West 241 277 9,200 -300 Descending Memphis Center
Tue 06:02:00 AM 37.2283 -89.1717 257° West 241 277 8,900 -350 Descending Memphis Center
Tue 06:03:00 AM 37.2122 -89.2472 255° West 241 277 8,500 -450 Descending Memphis Center
Tue 06:04:00 AM 37.1964 -89.3283 256° West 241 277 8,000 -400 Descending Memphis Center
Tue 06:05:00 AM 37.1803 -89.4092 256° West 241 277 7,700 -350 Descending Memphis Center
Tue 06:06:00 AM 37.1642 -89.4875 256° West 241 277 7,300 -400 Descending Memphis Center
Tue 06:07:00 AM 37.1461 -89.5711 255° West 241 277 6,900 -500 Descending Memphis Center
Tue 06:08:00 AM 37.1300 -89.6492 256° West 241 277 6,300 -650 Descending Memphis Center
Tue 06:09:00 AM 37.1136 -89.7300 256° West 241 277 5,600 -650 Descending Memphis Center
Tue 06:10:00 AM 37.0975 -89.8108 256° West 241 277 5,000 -650 Descending Memphis Center
Tue 06:11:00 AM 37.0811 -89.8864 255° West 241 277 4,300 -700 Descending Memphis Center
Tue 06:12:00 AM 37.0625 -89.9694 254° West 241 277 3,600 -650 Descending Memphis Center
Tue 06:13:00 AM 37.0503 -90.0425 258° West 241 277 3,000 -550 Descending Memphis Center
Tue 06:14:00 AM 37.0297 -90.1203 252° West 241 277 2,500 -250 Descending Memphis Center
Tue 06:15:00 AM 37.0172 -90.1933 258° West 228 262 2,500  Level Memphis Center
Tue 06:16:00 AM 37.0047 -90.2608 257° West 212 244 2,500  Level Memphis Center
Tue 06:17:00 AM 36.9881 -90.3231 251° West 212 244 2,500  Level Memphis Center
Tue 06:18:00 AM 36.9547 -90.3206 177° South 149 171 2,500 -325 Level Memphis Center
Tue 06:21:00 AM 36.8214 -90.3283 183° South 230 265 1,200 -350 Descending Memphis Center
Tue 06:22:00 AM 36.7672 -90.3439 193° South 230 265 1,100 -100 Descending Memphis Center

Login

Don't have an account? Register now (free) for customized features, flight alerts, and more!